createdAt,value
2018-06-28T00:00:04.976Z,18.12
2018-06-28T00:01:13.841Z,18.36
2018-06-28T00:02:22.709Z,18.18
2018-06-28T00:03:32.127Z,18.14
2018-06-28T00:04:41.042Z,18.25
2018-06-28T00:05:49.907Z,18.23
2018-06-28T00:06:58.767Z,18.26
2018-06-28T00:08:07.629Z,18.18
2018-06-28T00:09:16.495Z,18.18
2018-06-28T00:10:25.356Z,18.2
2018-06-28T00:11:34.505Z,18.21
2018-06-28T00:12:43.372Z,18.1
2018-06-28T00:13:52.236Z,18.21
2018-06-28T00:15:01.100Z,18.08
2018-06-28T00:16:10.590Z,18.03
2018-06-28T00:17:19.456Z,18.07
2018-06-28T00:18:28.593Z,17.99
2018-06-28T00:19:37.455Z,17.93
2018-06-28T00:20:46.879Z,17.95
2018-06-28T00:21:55.791Z,17.97
2018-06-28T00:23:04.656Z,17.9
2018-06-28T00:24:13.545Z,17.89
2018-06-28T00:25:22.691Z,17.89
2018-06-28T00:26:31.555Z,17.87
2018-06-28T00:27:40.771Z,17.82
2018-06-28T00:28:49.635Z,17.82
2018-06-28T00:29:58.494Z,17.74
2018-06-28T00:31:07.633Z,17.74
2018-06-28T00:32:16.497Z,17.68
2018-06-28T00:33:25.461Z,17.74
2018-06-28T00:34:34.322Z,17.79
2018-06-28T00:35:43.464Z,17.77
2018-06-28T00:36:52.326Z,17.77
2018-06-28T00:38:01.192Z,17.64
2018-06-28T00:39:10.106Z,17.58
2018-06-28T00:40:19.246Z,17.51
2018-06-28T00:41:28.111Z,17.59
2018-06-28T00:42:36.982Z,17.49
2018-06-28T00:43:46.465Z,17.59
2018-06-28T00:44:55.816Z,17.52
2018-06-28T00:46:04.690Z,17.56
2018-06-28T00:47:13.555Z,17.49
2018-06-28T00:48:22.416Z,17.49
2018-06-28T00:49:31.276Z,17.51
2018-06-28T00:50:40.240Z,17.49
2018-06-28T00:51:49.386Z,17.44
2018-06-28T00:52:58.251Z,17.41
2018-06-28T00:54:07.394Z,17.41
2018-06-28T00:55:16.257Z,17.44
2018-06-28T00:56:25.472Z,17.4
2018-06-28T00:57:34.335Z,17.4
2018-06-28T00:58:43.199Z,17.34
2018-06-28T00:59:52.063Z,17.3
2018-06-28T01:01:00.926Z,17.3
2018-06-28T01:02:10.519Z,17.26
2018-06-28T01:03:19.379Z,17.26
2018-06-28T01:04:28.519Z,17.19
2018-06-28T01:05:37.656Z,17.15
2018-06-28T01:06:46.515Z,17.19
2018-06-28T01:07:55.532Z,17.15
2018-06-28T01:09:04.392Z,17.08
2018-06-28T01:10:13.531Z,17.11
2018-06-28T01:11:22.392Z,17.14
2018-06-28T01:12:31.253Z,17.06
2018-06-28T01:13:40.117Z,17.14
2018-06-28T01:14:48.980Z,17.03
2018-06-28T01:15:57.844Z,17.14
2018-06-28T01:17:06.707Z,17.07
2018-06-28T01:18:15.578Z,17.11
2018-06-28T01:19:24.721Z,16.96
2018-06-28T01:20:33.864Z,17.01
2018-06-28T01:21:42.728Z,17.01
2018-06-28T01:22:51.590Z,17.04
2018-06-28T01:24:00.452Z,16.88
2018-06-28T01:25:09.564Z,16.94
2018-06-28T01:26:18.424Z,16.98
2018-06-28T01:27:27.562Z,16.88
2018-06-28T01:28:36.425Z,16.89
2018-06-28T01:29:45.287Z,16.79
2018-06-28T01:30:54.301Z,16.91
2018-06-28T01:32:03.164Z,16.86
2018-06-28T01:33:12.027Z,16.81
2018-06-28T01:34:20.888Z,16.81
2018-06-28T01:35:30.028Z,16.86
2018-06-28T01:36:38.889Z,16.76
2018-06-28T01:37:47.752Z,16.81
2018-06-28T01:38:56.894Z,16.79
2018-06-28T01:40:05.857Z,16.76
2018-06-28T01:41:14.719Z,16.75
2018-06-28T01:42:23.585Z,16.78
2018-06-28T01:43:32.723Z,16.71
2018-06-28T01:44:41.583Z,16.73
2018-06-28T01:45:50.733Z,16.78
2018-06-28T01:47:00.054Z,16.73
2018-06-28T01:48:09.066Z,16.67
2018-06-28T01:49:17.927Z,16.75
2018-06-28T01:50:26.789Z,16.7
2018-06-28T01:51:35.661Z,16.71
2018-06-28T01:52:44.523Z,16.7
2018-06-28T01:53:53.384Z,16.57
2018-06-28T01:55:02.297Z,16.58
2018-06-28T01:56:11.394Z,16.49
2018-06-28T01:57:20.531Z,16.46
2018-06-28T01:58:29.392Z,16.45
2018-06-28T01:59:38.606Z,16.5
2018-06-28T02:00:47.466Z,16.49
2018-06-28T02:01:56.334Z,16.48
2018-06-28T02:03:05.750Z,16.49
2018-06-28T02:04:14.612Z,16.46
2018-06-28T02:05:23.528Z,16.46
2018-06-28T02:06:32.392Z,16.49
2018-06-28T02:07:41.534Z,16.48
2018-06-28T02:08:50.396Z,16.41
2018-06-28T02:09:59.257Z,16.42
2018-06-28T02:11:08.451Z,16.41
2018-06-28T02:12:17.315Z,16.34
2018-06-28T02:13:26.179Z,16.34
2018-06-28T02:14:35.316Z,16.35
2018-06-28T02:15:44.464Z,16.3
2018-06-28T02:16:53.801Z,16.27
2018-06-28T02:18:02.661Z,16.31
2018-06-28T02:19:11.522Z,16.35
2018-06-28T02:20:20.387Z,16.28
2018-06-28T02:21:29.247Z,16.27
2018-06-28T02:22:38.487Z,16.21
2018-06-28T02:23:47.902Z,16.25
2018-06-28T02:24:57.048Z,16.21
2018-06-28T02:26:05.919Z,16.14
2018-06-28T02:27:14.784Z,16.15
2018-06-28T02:28:23.648Z,16.11
2018-06-28T02:29:32.790Z,16.17
2018-06-28T02:30:41.655Z,16.05
2018-06-28T02:31:51.068Z,16.05
2018-06-28T02:32:59.991Z,16
2018-06-28T02:34:08.853Z,16.11
2018-06-28T02:35:17.997Z,16.04
2018-06-28T02:36:27.419Z,16.01
2018-06-28T02:37:36.849Z,16.12
2018-06-28T02:38:45.714Z,16.14
2018-06-28T02:39:54.906Z,16.09
2018-06-28T02:41:04.328Z,16.07
2018-06-28T02:42:13.469Z,16.02
2018-06-28T02:43:22.340Z,15.96
2018-06-28T02:44:31.754Z,16
2018-06-28T02:45:41.045Z,15.97
2018-06-28T02:46:50.748Z,15.97
2018-06-28T02:48:00.444Z,15.96
2018-06-28T02:49:09.585Z,15.9
2018-06-28T02:50:18.728Z,15.97
2018-06-28T02:51:28.323Z,15.9
2018-06-28T02:52:37.467Z,15.97
2018-06-28T02:53:46.330Z,15.97
2018-06-28T02:54:55.755Z,15.93
2018-06-28T02:56:04.948Z,15.89
2018-06-28T02:57:13.916Z,15.84
2018-06-28T02:58:23.344Z,15.84
2018-06-28T02:59:32.762Z,15.83
2018-06-28T03:00:41.616Z,15.75
2018-06-28T03:01:51.050Z,15.83
2018-06-28T03:03:00.022Z,15.78
2018-06-28T03:04:08.895Z,15.69
2018-06-28T03:05:18.315Z,15.67
2018-06-28T03:06:27.444Z,15.67
2018-06-28T03:07:36.587Z,15.67
2018-06-28T03:08:45.454Z,15.8
2018-06-28T03:09:54.312Z,15.67
2018-06-28T03:11:03.750Z,15.65
2018-06-28T03:12:12.613Z,15.65
2018-06-28T03:13:22.028Z,15.68
2018-06-28T03:14:31.042Z,15.71
2018-06-28T03:15:40.185Z,15.67
2018-06-28T03:16:49.886Z,15.6
2018-06-28T03:17:59.032Z,15.62
2018-06-28T03:19:08.455Z,15.56
2018-06-28T03:20:17.749Z,15.54
2018-06-28T03:21:26.610Z,15.56
2018-06-28T03:22:35.473Z,15.53
2018-06-28T03:23:44.621Z,15.53
2018-06-28T03:24:53.763Z,15.49
2018-06-28T03:26:02.777Z,15.49
2018-06-28T03:27:11.641Z,15.49
2018-06-28T03:28:20.499Z,15.51
2018-06-28T03:29:29.398Z,15.49
2018-06-28T03:30:38.291Z,15.49
2018-06-28T03:31:47.768Z,15.54
2018-06-28T03:32:56.908Z,15.57
2018-06-28T03:34:05.768Z,15.56
2018-06-28T03:35:14.634Z,15.46
2018-06-28T03:36:23.778Z,15.5
2018-06-28T03:37:32.742Z,15.51
2018-06-28T03:38:41.603Z,15.5
2018-06-28T03:39:50.466Z,15.53
2018-06-28T03:40:59.609Z,15.51
2018-06-28T03:42:08.470Z,15.56
2018-06-28T03:43:17.610Z,15.56
2018-06-28T03:44:26.750Z,15.53
2018-06-28T03:45:35.612Z,15.6
2018-06-28T03:46:44.473Z,15.53
2018-06-28T03:47:53.885Z,15.57
2018-06-28T03:49:02.895Z,15.53
2018-06-28T03:50:12.041Z,15.54
2018-06-28T03:51:20.905Z,15.54
2018-06-28T03:52:29.766Z,15.6
2018-06-28T03:53:38.625Z,15.53
2018-06-28T03:54:47.489Z,15.59
2018-06-28T03:55:56.353Z,15.65
2018-06-28T03:57:05.513Z,15.54
2018-06-28T03:58:14.374Z,15.59
2018-06-28T03:59:23.235Z,15.65
2018-06-28T04:00:32.248Z,15.64
2018-06-28T04:01:41.389Z,15.67
2018-06-28T04:02:50.530Z,15.67
2018-06-28T04:03:59.667Z,15.68
2018-06-28T04:05:08.529Z,15.69
2018-06-28T04:06:17.768Z,15.65
2018-06-28T04:07:26.913Z,15.78
2018-06-28T04:08:35.773Z,15.69
2018-06-28T04:09:44.636Z,15.74
2018-06-28T04:10:53.779Z,15.74
2018-06-28T04:12:02.987Z,15.74
2018-06-28T04:13:11.848Z,15.76
2018-06-28T04:14:20.986Z,15.8
2018-06-28T04:15:29.848Z,15.78
2018-06-28T04:16:38.766Z,15.86
2018-06-28T04:17:47.724Z,15.87
2018-06-28T04:18:56.592Z,15.82
2018-06-28T04:20:05.742Z,15.83
2018-06-28T04:21:14.605Z,15.82
2018-06-28T04:22:23.468Z,15.84
2018-06-28T04:23:32.478Z,15.93
2018-06-28T04:24:41.340Z,15.89
2018-06-28T04:25:50.484Z,15.93
2018-06-28T04:26:59.343Z,15.9
2018-06-28T04:28:08.205Z,15.8
2018-06-28T04:29:17.216Z,15.97
2018-06-28T04:30:26.078Z,15.97
2018-06-28T04:31:34.940Z,15.97
2018-06-28T04:32:43.800Z,15.93
2018-06-28T04:33:52.663Z,15.92
2018-06-28T04:35:01.950Z,15.97
2018-06-28T04:36:11.088Z,15.93
2018-06-28T04:37:20.229Z,16.05
2018-06-28T04:38:29.089Z,15.89
2018-06-28T04:39:37.949Z,15.97
2018-06-28T04:40:47.087Z,15.96
2018-06-28T04:41:56.241Z,15.96
2018-06-28T04:43:05.100Z,15.96
2018-06-28T04:44:14.249Z,16
2018-06-28T04:45:23.117Z,16.01
2018-06-28T04:46:32.310Z,16.02
2018-06-28T04:47:41.171Z,15.97
2018-06-28T04:48:50.035Z,15.97
2018-06-28T04:49:59.294Z,16.01
2018-06-28T04:51:08.156Z,16.02
2018-06-28T04:52:17.444Z,16.09
2018-06-28T04:53:26.307Z,15.97
2018-06-28T04:54:35.448Z,16.09
2018-06-28T04:55:44.311Z,16.15
2018-06-28T04:56:53.172Z,16.09
2018-06-28T04:58:02.668Z,16.11
2018-06-28T04:59:11.530Z,16.17
2018-06-28T05:00:20.394Z,16.09
2018-06-28T05:01:29.535Z,16.11
2018-06-28T05:02:38.396Z,16.12
2018-06-28T05:03:47.613Z,16.23
2018-06-28T05:04:56.749Z,16.27
2018-06-28T05:06:05.610Z,16.34
2018-06-28T05:07:14.752Z,16.39
2018-06-28T05:08:23.612Z,16.35
2018-06-28T05:09:32.576Z,16.41
2018-06-28T05:10:41.441Z,16.38
2018-06-28T05:11:50.304Z,16.39
2018-06-28T05:12:59.167Z,16.39
2018-06-28T05:14:08.033Z,16.43
2018-06-28T05:15:17.194Z,16.34
2018-06-28T05:16:26.327Z,16.45
2018-06-28T05:17:35.190Z,16.39
2018-06-28T05:18:44.051Z,16.43
2018-06-28T05:19:52.913Z,16.5
2018-06-28T05:21:01.838Z,16.5
2018-06-28T05:22:10.992Z,16.45
2018-06-28T05:23:20.509Z,16.45
2018-06-28T05:24:29.710Z,16.49
2018-06-28T05:25:38.584Z,16.48
2018-06-28T05:26:47.773Z,16.61
2018-06-28T05:27:56.635Z,16.61
2018-06-28T05:29:05.509Z,16.57
2018-06-28T05:30:14.365Z,16.56
2018-06-28T05:31:23.225Z,16.64
2018-06-28T05:32:32.189Z,16.71
2018-06-28T05:33:41.329Z,16.76
2018-06-28T05:34:50.196Z,16.7
2018-06-28T05:35:59.054Z,16.75
2018-06-28T05:37:08.190Z,16.75
2018-06-28T05:38:17.406Z,16.71
2018-06-28T05:39:26.268Z,16.76
2018-06-28T05:40:35.131Z,16.78
2018-06-28T05:41:44.267Z,16.73
2018-06-28T05:42:53.133Z,16.78
2018-06-28T05:44:02.046Z,16.83
2018-06-28T05:45:11.187Z,16.83
2018-06-28T05:46:20.047Z,16.88
2018-06-28T05:47:28.910Z,16.81
2018-06-28T05:48:37.774Z,16.86
2018-06-28T05:49:46.638Z,16.88
2018-06-28T05:50:55.666Z,16.89
2018-06-28T05:52:04.531Z,16.88
2018-06-28T05:53:13.403Z,16.89
2018-06-28T05:54:22.626Z,16.93
2018-06-28T05:55:31.591Z,16.91
2018-06-28T05:56:40.452Z,16.96
2018-06-28T05:57:49.312Z,16.88
2018-06-28T05:58:58.179Z,16.93
2018-06-28T06:00:07.607Z,17.01
2018-06-28T06:01:16.616Z,16.94
2018-06-28T06:02:25.429Z,17.07
2018-06-28T06:03:34.297Z,17.06
2018-06-28T06:04:43.162Z,17.14
2018-06-28T06:05:52.024Z,17.06
2018-06-28T06:07:00.936Z,17.18
2018-06-28T06:08:10.298Z,17.11
2018-06-28T06:09:19.233Z,17.12
2018-06-28T06:10:28.448Z,17.16
2018-06-28T06:11:37.590Z,17.19
2018-06-28T06:12:46.457Z,17.23
2018-06-28T06:13:55.595Z,17.25
2018-06-28T06:15:04.734Z,17.33
2018-06-28T06:16:13.599Z,17.26
2018-06-28T06:17:22.460Z,17.34
2018-06-28T06:18:31.597Z,17.31
2018-06-28T06:19:40.463Z,17.31
2018-06-28T06:20:49.605Z,17.31
2018-06-28T06:21:58.467Z,17.37
2018-06-28T06:23:08.177Z,17.37
2018-06-28T06:24:17.038Z,17.41
2018-06-28T06:25:26.175Z,17.51
2018-06-28T06:26:35.038Z,17.58
2018-06-28T06:27:43.904Z,17.55
2018-06-28T06:28:52.766Z,17.58
2018-06-28T06:30:01.906Z,17.59
2018-06-28T06:31:10.769Z,17.63
2018-06-28T06:32:19.634Z,17.63
2018-06-28T06:33:28.503Z,17.68
2018-06-28T06:34:37.368Z,17.66
2018-06-28T06:35:47.060Z,17.71
2018-06-28T06:36:55.925Z,17.7
2018-06-28T06:38:04.839Z,17.75
2018-06-28T06:39:13.702Z,17.82
2018-06-28T06:40:23.180Z,17.81
2018-06-28T06:41:32.041Z,17.74
2018-06-28T06:42:41.178Z,17.87
2018-06-28T06:43:50.391Z,17.87
2018-06-28T06:44:59.529Z,17.82
2018-06-28T06:46:08.453Z,17.92
2018-06-28T06:47:17.313Z,17.97
2018-06-28T06:48:26.192Z,17.97
2018-06-28T06:49:36.066Z,18.02
2018-06-28T06:50:44.931Z,18.17
2018-06-28T06:51:54.077Z,18.18
2018-06-28T06:53:02.939Z,18.18
2018-06-28T06:54:12.082Z,18.21
2018-06-28T06:55:21.000Z,18.25
2018-06-28T06:56:29.873Z,18.23
2018-06-28T06:57:38.758Z,18.23
2018-06-28T06:58:47.599Z,18.11
2018-06-28T06:59:56.464Z,18.3
2018-06-28T07:01:05.326Z,18.33
2018-06-28T07:02:14.190Z,18.32
2018-06-28T07:03:23.054Z,18.33
2018-06-28T07:04:32.338Z,18.3
2018-06-28T07:05:41.480Z,18.39
2018-06-28T07:06:51.053Z,18.32
2018-06-28T07:08:00.476Z,18.39
2018-06-28T07:09:09.751Z,18.42
2018-06-28T07:10:18.756Z,18.48
2018-06-28T07:11:28.218Z,18.58
2018-06-28T07:12:38.005Z,18.66
2018-06-28T07:13:46.869Z,18.69
2018-06-28T07:14:56.008Z,18.65
2018-06-28T07:16:05.915Z,18.72
2018-06-28T07:17:14.944Z,18.67
2018-06-28T07:18:24.602Z,18.75
2018-06-28T07:19:33.999Z,18.9
2018-06-28T07:20:42.994Z,18.99
2018-06-28T07:21:51.895Z,18.95
2018-06-28T07:23:01.212Z,18.95
2018-06-28T07:24:10.238Z,18.9
2018-06-28T07:25:19.641Z,18.95
2018-06-28T07:26:28.624Z,18.98
2018-06-28T07:27:37.764Z,18.98
2018-06-28T07:28:47.000Z,19.11
2018-06-28T07:29:56.016Z,19.14
2018-06-28T07:31:04.887Z,19.08
2018-06-28T07:32:13.749Z,19.04
2018-06-28T07:33:22.898Z,19.18
2018-06-28T07:34:32.043Z,19.26
2018-06-28T07:35:40.930Z,19.31
2018-06-28T07:36:50.167Z,19.33
2018-06-28T07:37:59.035Z,19.4
2018-06-28T07:39:07.896Z,19.4
2018-06-28T07:40:16.760Z,19.4
2018-06-28T07:41:25.724Z,19.5
2018-06-28T07:42:34.867Z,19.58
2018-06-28T07:43:44.007Z,19.63
2018-06-28T07:44:53.321Z,19.69
2018-06-28T07:46:02.464Z,19.74
2018-06-28T07:47:11.559Z,19.98
2018-06-28T07:48:20.985Z,19.87
2018-06-28T07:49:30.127Z,19.91
2018-06-28T07:50:38.994Z,19.83
2018-06-28T07:51:47.857Z,19.92
2018-06-28T07:52:56.973Z,19.91
2018-06-28T07:54:06.113Z,19.88
2018-06-28T07:55:15.558Z,20.01
2018-06-28T07:56:24.687Z,20.02
2018-06-28T07:57:33.550Z,20.05
2018-06-28T07:58:43.000Z,20.06
2018-06-28T07:59:51.865Z,20.03
2018-06-28T08:01:01.010Z,20.11
2018-06-28T08:02:10.153Z,20.11
2018-06-28T08:03:19.577Z,20.1
2018-06-28T08:04:28.716Z,20.13
2018-06-28T08:05:37.580Z,20.16
2018-06-28T08:06:46.444Z,20.1
2018-06-28T08:07:55.308Z,20.21
2018-06-28T08:09:04.172Z,20.18
2018-06-28T08:10:13.362Z,20.21
2018-06-28T08:11:22.507Z,20.32
2018-06-28T08:12:31.653Z,20.32
2018-06-28T08:13:40.518Z,20.32
2018-06-28T08:14:49.384Z,20.39
2018-06-28T08:15:58.349Z,20.43
2018-06-28T08:17:07.493Z,20.72
2018-06-28T08:18:16.358Z,20.73
2018-06-28T08:19:25.224Z,20.82
2018-06-28T08:20:34.088Z,21.04
2018-06-28T08:21:43.331Z,21.19
2018-06-28T08:22:52.196Z,21.06
2018-06-28T08:24:01.381Z,21.03
2018-06-28T08:25:10.530Z,20.97
2018-06-28T08:26:19.670Z,20.97
2018-06-28T08:27:28.582Z,20.94
2018-06-28T08:28:37.723Z,20.95
2018-06-28T08:29:46.868Z,21.03
2018-06-28T08:30:55.734Z,21.1
2018-06-28T08:32:04.893Z,21.09
2018-06-28T08:33:13.808Z,21.09
2018-06-28T08:34:22.673Z,21.34
2018-06-28T08:35:31.821Z,21.42
2018-06-28T08:36:40.683Z,21.27
2018-06-28T08:37:49.544Z,21.34
2018-06-28T08:38:58.561Z,21.34
2018-06-28T08:40:07.426Z,21.25
2018-06-28T08:41:16.293Z,21.4
2018-06-28T08:42:25.524Z,21.28
2018-06-28T08:43:34.389Z,21.31
2018-06-28T08:44:43.304Z,21.4
2018-06-28T08:45:52.449Z,21.5
2018-06-28T08:47:01.592Z,21.54
2018-06-28T08:48:10.458Z,21.9
2018-06-28T08:49:19.323Z,21.82
2018-06-28T08:50:28.338Z,21.91
2018-06-28T08:51:37.202Z,21.77
2018-06-28T08:52:46.068Z,21.75
2018-06-28T08:53:55.211Z,21.68
2018-06-28T08:55:04.353Z,21.8
2018-06-28T08:56:13.369Z,21.68
2018-06-28T08:57:22.516Z,21.71
2018-06-28T08:58:31.658Z,21.67
2018-06-28T08:59:40.523Z,21.68
2018-06-28T09:00:49.390Z,21.64
2018-06-28T09:01:58.941Z,21.65
2018-06-28T09:03:08.080Z,21.77
2018-06-28T09:04:17.222Z,21.67
2018-06-28T09:05:26.138Z,21.58
2018-06-28T09:06:35.283Z,21.64
2018-06-28T09:07:44.248Z,21.84
2018-06-28T09:08:53.113Z,21.9
2018-06-28T09:10:02.265Z,22.09
2018-06-28T09:11:11.688Z,22.21
2018-06-28T09:12:20.552Z,22.21
2018-06-28T09:13:29.418Z,22.47
2018-06-28T09:14:38.283Z,22.36
2018-06-28T09:15:47.147Z,22.33
2018-06-28T09:16:56.290Z,22.25
2018-06-28T09:18:05.439Z,22.18
2018-06-28T09:19:14.354Z,22.18
2018-06-28T09:20:23.221Z,22.22
2018-06-28T09:21:32.083Z,22.21
2018-06-28T09:22:41.460Z,22.35
2018-06-28T09:23:50.624Z,22.33
2018-06-28T09:24:59.593Z,22.33
2018-06-28T09:26:08.735Z,22.4
2018-06-28T09:27:17.601Z,22.58
2018-06-28T09:28:26.470Z,22.49
2018-06-28T09:29:35.337Z,22.75
2018-06-28T09:30:44.644Z,22.73
2018-06-28T09:31:53.506Z,22.77
2018-06-28T09:33:02.373Z,22.8
2018-06-28T09:34:11.238Z,22.77
2018-06-28T09:35:20.797Z,22.9
2018-06-28T09:36:30.412Z,22.9
2018-06-28T09:37:39.500Z,22.94
2018-06-28T09:38:48.494Z,22.8
2018-06-28T09:39:57.438Z,22.82
2018-06-28T09:41:06.304Z,22.91
2018-06-28T09:42:15.602Z,23.02
2018-06-28T09:43:24.537Z,22.95
2018-06-28T09:44:33.407Z,22.95
2018-06-28T09:45:42.276Z,22.95
2018-06-28T09:46:51.302Z,22.9
2018-06-28T09:48:00.498Z,22.76
2018-06-28T09:49:09.493Z,22.75
2018-06-28T09:50:18.446Z,22.76
2018-06-28T09:51:27.732Z,22.97
2018-06-28T09:52:36.776Z,23.04
2018-06-28T09:53:45.700Z,23.09
2018-06-28T09:54:55.257Z,23.25
2018-06-28T09:56:04.123Z,23.36
2018-06-28T09:57:13.441Z,23.58
2018-06-28T09:58:22.588Z,23.66
2018-06-28T09:59:31.734Z,23.85
2018-06-28T10:00:41.155Z,23.8
2018-06-28T10:01:50.023Z,23.88
2018-06-28T10:02:58.889Z,23.7
2018-06-28T10:04:07.757Z,23.5
2018-06-28T10:05:16.936Z,23.6
2018-06-28T10:06:26.082Z,23.51
2018-06-28T10:07:34.949Z,23.47
2018-06-28T10:08:43.816Z,23.54
2018-06-28T10:09:53.011Z,23.55
2018-06-28T10:11:01.930Z,23.63
2018-06-28T10:12:10.935Z,23.91
2018-06-28T10:13:19.920Z,23.78
2018-06-28T10:14:29.613Z,23.95
2018-06-28T10:15:38.857Z,23.73
2018-06-28T10:16:47.877Z,23.8
2018-06-28T10:17:57.297Z,23.97
2018-06-28T10:19:06.607Z,24
2018-06-28T10:20:15.753Z,24.18
2018-06-28T10:21:24.617Z,24.12
2018-06-28T10:22:34.140Z,24.03
2018-06-28T10:23:43.006Z,24.1
2018-06-28T10:24:51.871Z,24
2018-06-28T10:26:00.739Z,23.73
2018-06-28T10:27:09.883Z,23.79
2018-06-28T10:28:19.102Z,23.93
2018-06-28T10:29:28.244Z,24.15
2018-06-28T10:30:37.112Z,24.27
2018-06-28T10:31:46.253Z,24.46
2018-06-28T10:32:55.123Z,24.61
2018-06-28T10:34:03.990Z,24.65
2018-06-28T10:35:13.134Z,24.76
2018-06-28T10:36:22.001Z,24.6
2018-06-28T10:37:30.872Z,24.46
2018-06-28T10:38:40.020Z,24.39
2018-06-28T10:39:49.512Z,24.12
2018-06-28T10:40:58.420Z,24.13
2018-06-28T10:42:07.629Z,24.3
2018-06-28T10:43:16.494Z,24.35
2018-06-28T10:44:25.370Z,24.42
2018-06-28T10:45:34.479Z,24.42
2018-06-28T10:46:43.620Z,24.49
2018-06-28T10:47:52.763Z,24.28
2018-06-28T10:49:01.628Z,24.47
2018-06-28T10:50:10.498Z,24.64
2018-06-28T10:51:19.787Z,24.71
2018-06-28T10:52:28.662Z,24.76
2018-06-28T10:53:37.525Z,24.88
2018-06-28T10:54:46.391Z,25.02
2018-06-28T10:55:55.260Z,24.9
2018-06-28T10:57:04.277Z,25.08
2018-06-28T10:58:13.420Z,24.99
2018-06-28T10:59:22.291Z,25.14
2018-06-28T11:00:31.155Z,25.03
2018-06-28T11:01:40.045Z,24.99
2018-06-28T11:02:49.243Z,25.15
2018-06-28T11:03:58.114Z,25.23
2018-06-28T11:05:06.983Z,25.33
2018-06-28T11:06:15.928Z,25.39
2018-06-28T11:07:24.976Z,25.39
2018-06-28T11:08:34.472Z,25.36
2018-06-28T11:09:43.623Z,25.43
2018-06-28T11:10:52.492Z,25.42
2018-06-28T11:12:01.634Z,25.55
2018-06-28T11:13:10.502Z,25.76
2018-06-28T11:14:19.574Z,25.83
2018-06-28T11:15:28.554Z,25.85
2018-06-28T11:16:37.844Z,25.8
2018-06-28T11:17:47.158Z,25.85
2018-06-28T11:18:56.331Z,25.83
2018-06-28T11:20:05.315Z,26.02
2018-06-28T11:21:14.569Z,26.06
2018-06-28T11:22:23.441Z,25.97
2018-06-28T11:23:32.313Z,26.01
2018-06-28T11:24:41.195Z,26.12
2018-06-28T11:25:50.818Z,26.1
2018-06-28T11:27:00.045Z,26.17
2018-06-28T11:28:09.188Z,26.3
2018-06-28T11:29:18.063Z,26.44
2018-06-28T11:30:26.956Z,26.57
2018-06-28T11:31:36.634Z,26.54
2018-06-28T11:32:45.509Z,26.44
2018-06-28T11:33:54.378Z,26.55
2018-06-28T11:35:03.245Z,26.69
2018-06-28T11:36:12.531Z,26.73
2018-06-28T11:37:22.107Z,26.51
2018-06-28T11:38:30.979Z,26.43
2018-06-28T11:39:39.846Z,26.28
2018-06-28T11:40:48.998Z,26.35
2018-06-28T11:41:57.866Z,26.43
2018-06-28T11:43:07.233Z,26.65
2018-06-28T11:44:16.091Z,26.72
2018-06-28T11:45:25.240Z,26.81
2018-06-28T11:46:34.106Z,26.92
2018-06-28T11:47:42.977Z,26.99
2018-06-28T11:48:51.842Z,27.1
2018-06-28T11:50:01.270Z,27.18
2018-06-28T11:51:10.697Z,27.29
2018-06-28T11:52:19.609Z,27.28
2018-06-28T11:53:29.117Z,27.34
2018-06-28T11:54:37.986Z,27.4
2018-06-28T11:55:46.901Z,27.17
2018-06-28T11:56:55.769Z,27.36
2018-06-28T11:58:04.938Z,27.31
2018-06-28T11:59:13.815Z,27.06
2018-06-28T12:00:22.768Z,27.28
2018-06-28T12:01:31.635Z,27.43
2018-06-28T12:02:40.851Z,27.24
2018-06-28T12:03:50.004Z,27.36
2018-06-28T12:04:58.871Z,27.49
2018-06-28T12:06:08.019Z,27.63
2018-06-28T12:07:17.450Z,27.59
2018-06-28T12:08:26.575Z,28.04
2018-06-28T12:09:35.447Z,28.21
2018-06-28T12:10:44.351Z,28.34
2018-06-28T12:11:53.192Z,28.55
2018-06-28T12:13:02.064Z,28.66
2018-06-28T12:14:10.986Z,28.71
2018-06-28T12:15:19.924Z,28.92
2018-06-28T12:16:28.737Z,29.05
2018-06-28T12:17:37.885Z,28.93
2018-06-28T12:18:47.314Z,29.04
2018-06-28T12:19:56.344Z,28.9
2018-06-28T12:21:05.221Z,28.98
2018-06-28T12:22:14.657Z,29.08
2018-06-28T12:23:23.531Z,29.15
2018-06-28T12:24:32.415Z,29.12
2018-06-28T12:25:41.574Z,29.18
2018-06-28T12:26:50.451Z,29.24
2018-06-28T12:27:59.667Z,29.39
2018-06-28T12:29:08.544Z,29.24
2018-06-28T12:30:17.697Z,29.16
2018-06-28T12:31:26.574Z,29.26
2018-06-28T12:32:35.494Z,29.3
2018-06-28T12:33:45.158Z,29.46
2018-06-28T12:34:54.035Z,29.58
2018-06-28T12:36:03.018Z,29.58
2018-06-28T12:37:12.160Z,29.65
2018-06-28T12:38:21.038Z,29.7
2018-06-28T12:39:29.919Z,29.55
2018-06-28T12:40:38.802Z,29.83
2018-06-28T12:41:47.681Z,29.85
2018-06-28T12:42:56.759Z,29.97
2018-06-28T12:44:05.638Z,29.94
2018-06-28T12:45:14.524Z,30.04
2018-06-28T12:46:23.425Z,30.23
2018-06-28T12:47:32.605Z,30.29
2018-06-28T12:48:41.762Z,30.23
2018-06-28T12:49:50.643Z,30.26
2018-06-28T12:50:59.798Z,30.45
2018-06-28T12:52:08.677Z,30.42
2018-06-28T12:53:17.556Z,30.47
2018-06-28T12:54:26.788Z,30.53
2018-06-28T12:55:35.948Z,30.38
2018-06-28T12:56:44.828Z,30.38
2018-06-28T12:57:53.989Z,30.49
2018-06-28T12:59:03.142Z,30.38
2018-06-28T13:00:12.077Z,30.55
2018-06-28T13:01:20.958Z,30.64
2018-06-28T13:02:29.838Z,30.62
2018-06-28T13:03:38.718Z,30.73
2018-06-28T13:04:47.602Z,30.79
2018-06-28T13:05:56.581Z,30.69
2018-06-28T13:07:05.561Z,30.79
2018-06-28T13:08:14.737Z,31.04
2018-06-28T13:09:23.618Z,30.95
2018-06-28T13:10:32.501Z,30.98
2018-06-28T13:11:41.437Z,31.02
2018-06-28T13:12:50.321Z,31.12
2018-06-28T13:13:59.207Z,31.17
2018-06-28T13:15:08.088Z,31.21
2018-06-28T13:16:16.968Z,31.26
2018-06-28T13:17:26.005Z,31.2
2018-06-28T13:18:34.903Z,31.26
2018-06-28T13:19:44.063Z,31.14
2018-06-28T13:20:53.226Z,31.16
2018-06-28T13:22:02.384Z,31.13
2018-06-28T13:23:11.366Z,31.1
2018-06-28T13:24:20.247Z,31.21
2018-06-28T13:25:29.132Z,31.26
2018-06-28T13:26:38.011Z,31.46
2018-06-28T13:27:46.891Z,31.53
2018-06-28T13:28:55.881Z,31.63
2018-06-28T13:30:05.064Z,31.68
2018-06-28T13:31:13.947Z,31.81
2018-06-28T13:32:23.107Z,31.93
2018-06-28T13:33:31.992Z,32.07
2018-06-28T13:34:41.440Z,31.86
2018-06-28T13:35:50.323Z,31.81
2018-06-28T13:36:59.701Z,31.69
2018-06-28T13:38:10.293Z,31.92
2018-06-28T13:39:21.680Z,32.06
2018-06-28T13:40:31.893Z,32.04
2018-06-28T13:41:43.228Z,32.25
2018-06-28T13:42:52.340Z,32.29
2018-06-28T13:44:01.372Z,32.43
2018-06-28T13:45:10.448Z,32.41
2018-06-28T13:46:19.636Z,32.51
2018-06-28T13:47:29.203Z,32.43
2018-06-28T13:48:38.090Z,32.38
2018-06-28T13:49:47.259Z,32.37
2018-06-28T13:50:56.153Z,32.51
2018-06-28T13:52:05.151Z,32.59
2018-06-28T13:53:14.071Z,32.77
2018-06-28T13:54:23.005Z,32.99
2018-06-28T13:55:31.850Z,32.89
2018-06-28T13:56:40.741Z,32.66
2018-06-28T13:57:49.961Z,32.81
2018-06-28T13:58:58.843Z,32.65
2018-06-28T14:00:07.732Z,32.84
2018-06-28T14:01:16.616Z,32.96
2018-06-28T14:02:25.501Z,33.04
2018-06-28T14:03:34.394Z,33.16
2018-06-28T14:04:43.284Z,33.01
2018-06-28T14:05:52.181Z,33.04
2018-06-28T14:07:01.367Z,33.06
2018-06-28T14:08:10.256Z,33.14
2018-06-28T14:09:19.611Z,33.26
2018-06-28T14:10:28.795Z,33.38
2018-06-28T14:11:37.685Z,33.47
2018-06-28T14:12:46.850Z,33.76
2018-06-28T14:13:55.771Z,33.81
2018-06-28T14:15:04.693Z,33.87
2018-06-28T14:16:13.584Z,34.02
2018-06-28T14:17:22.486Z,33.91
2018-06-28T14:18:31.495Z,33.95
2018-06-28T14:19:40.826Z,33.93
2018-06-28T14:20:49.710Z,33.98
2018-06-28T14:21:58.604Z,34
2018-06-28T14:23:07.508Z,34.09
2018-06-28T14:24:16.408Z,34.08
2018-06-28T14:25:25.359Z,33.95
2018-06-28T14:26:34.495Z,34.03
2018-06-28T14:27:43.405Z,34.16
2018-06-28T14:28:52.333Z,34.12
2018-06-28T14:30:01.255Z,34.35
2018-06-28T14:31:10.147Z,34.21
2018-06-28T14:32:19.195Z,33.98
2018-06-28T14:33:28.147Z,33.95
2018-06-28T14:34:36.999Z,34.08
2018-06-28T14:35:45.900Z,34.31
2018-06-28T14:36:54.849Z,34.43
2018-06-28T14:38:04.122Z,34.59
2018-06-28T14:39:13.029Z,34.77
2018-06-28T14:40:21.991Z,34.7
2018-06-28T14:41:31.171Z,34.72
2018-06-28T14:42:40.070Z,34.66
2018-06-28T14:43:49.112Z,34.53
2018-06-28T14:44:58.025Z,34.22
2018-06-28T14:46:07.222Z,34.08
2018-06-28T14:47:16.181Z,34.1
2018-06-28T14:48:25.360Z,34.21
2018-06-28T14:49:35.009Z,34.09
2018-06-28T14:50:45.902Z,34.02
2018-06-28T14:51:56.421Z,33.93